sensor_id;sensor_type;location;lat;lon;timestamp;P1;durP1;ratioP1;P2;durP2;ratioP2
64986;SDS011;51532;52.108;9.360;2022-10-23T00:01:45;9.05;;;5.65;;
64986;SDS011;51532;52.108;9.360;2022-10-23T00:04:15;7.53;;;5.20;;
64986;SDS011;51532;52.108;9.360;2022-10-23T00:07:05;9.68;;;5.45;;
64986;SDS011;51532;52.108;9.360;2022-10-23T00:09:52;6.35;;;5.15;;
64986;SDS011;51532;52.108;9.360;2022-10-23T00:12:40;9.75;;;5.57;;
64986;SDS011;51532;52.108;9.360;2022-10-23T00:15:28;6.55;;;5.55;;
64986;SDS011;51532;52.108;9.360;2022-10-23T00:18:16;8.55;;;5.68;;
64986;SDS011;51532;52.108;9.360;2022-10-23T00:21:04;8.23;;;5.70;;
64986;SDS011;51532;52.108;9.360;2022-10-23T00:23:53;8.55;;;5.70;;
64986;SDS011;51532;52.108;9.360;2022-10-23T00:26:40;7.70;;;5.90;;
64986;SDS011;51532;52.108;9.360;2022-10-23T00:29:28;18.45;;;5.70;;
64986;SDS011;51532;52.108;9.360;2022-10-23T00:32:16;7.40;;;5.85;;
64986;SDS011;51532;52.108;9.360;2022-10-23T00:35:04;9.73;;;5.93;;
64986;SDS011;51532;52.108;9.360;2022-10-23T00:37:51;9.30;;;5.75;;
64986;SDS011;51532;52.108;9.360;2022-10-23T00:40:39;10.13;;;6.55;;
64986;SDS011;51532;52.108;9.360;2022-10-23T00:43:30;8.55;;;5.75;;
64986;SDS011;51532;52.108;9.360;2022-10-23T00:46:17;8.98;;;6.45;;
64986;SDS011;51532;52.108;9.360;2022-10-23T00:49:05;11.98;;;7.05;;
64986;SDS011;51532;52.108;9.360;2022-10-23T00:51:58;10.82;;;6.60;;
64986;SDS011;51532;52.108;9.360;2022-10-23T00:54:50;8.73;;;6.55;;
64986;SDS011;51532;52.108;9.360;2022-10-23T00:57:41;9.25;;;6.35;;
64986;SDS011;51532;52.108;9.360;2022-10-23T01:00:40;7.93;;;6.10;;
64986;SDS011;51532;52.108;9.360;2022-10-23T01:03:33;8.18;;;6.65;;
64986;SDS011;51532;52.108;9.360;2022-10-23T01:21:34;11.27;;;7.13;;
64986;SDS011;51532;52.108;9.360;2022-10-23T01:27:24;12.80;;;6.40;;
64986;SDS011;51532;52.108;9.360;2022-10-23T01:30:15;9.73;;;7.18;;
64986;SDS011;51532;52.108;9.360;2022-10-23T01:33:07;13.25;;;7.60;;
64986;SDS011;51532;52.108;9.360;2022-10-23T01:36:12;11.05;;;7.22;;
64986;SDS011;51532;52.108;9.360;2022-10-23T01:39:04;9.50;;;7.43;;
64986;SDS011;51532;52.108;9.360;2022-10-23T01:42:10;13.77;;;7.38;;
64986;SDS011;51532;52.108;9.360;2022-10-23T01:45:07;12.80;;;7.78;;
64986;SDS011;51532;52.108;9.360;2022-10-23T01:48:02;12.27;;;7.30;;
64986;SDS011;51532;52.108;9.360;2022-10-23T01:50:56;10.75;;;6.93;;
64986;SDS011;51532;52.108;9.360;2022-10-23T01:53:47;11.68;;;6.78;;
64986;SDS011;51532;52.108;9.360;2022-10-23T01:56:37;12.70;;;7.15;;
64986;SDS011;51532;52.108;9.360;2022-10-23T01:59:29;12.63;;;7.10;;
64986;SDS011;51532;52.108;9.360;2022-10-23T02:02:21;10.85;;;6.85;;
64986;SDS011;51532;52.108;9.360;2022-10-23T02:05:26;9.70;;;6.82;;
64986;SDS011;51532;52.108;9.360;2022-10-23T02:08:16;8.95;;;6.72;;
64986;SDS011;51532;52.108;9.360;2022-10-23T02:11:10;13.23;;;6.50;;
64986;SDS011;51532;52.108;9.360;2022-10-23T02:14:07;9.48;;;6.20;;
64986;SDS011;51532;52.108;9.360;2022-10-23T02:23:37;10.02;;;6.70;;
64986;SDS011;51532;52.108;9.360;2022-10-23T02:26:37;9.77;;;6.78;;
64986;SDS011;51532;52.108;9.360;2022-10-23T02:29:42;7.57;;;6.75;;
64986;SDS011;51532;52.108;9.360;2022-10-23T02:32:40;7.18;;;5.90;;
64986;SDS011;51532;52.108;9.360;2022-10-23T02:35:32;7.97;;;6.32;;
64986;SDS011;51532;52.108;9.360;2022-10-23T02:38:33;7.55;;;6.07;;
64986;SDS011;51532;52.108;9.360;2022-10-23T02:44:40;9.40;;;6.82;;
64986;SDS011;51532;52.108;9.360;2022-10-23T02:50:50;8.13;;;6.25;;
64986;SDS011;51532;52.108;9.360;2022-10-23T02:54:00;16.27;;;7.10;;
64986;SDS011;51532;52.108;9.360;2022-10-23T02:56:54;10.85;;;6.55;;
64986;SDS011;51532;52.108;9.360;2022-10-23T03:03:13;11.07;;;6.75;;
64986;SDS011;51532;52.108;9.360;2022-10-23T03:06:06;12.25;;;6.72;;
64986;SDS011;51532;52.108;9.360;2022-10-23T03:08:59;10.13;;;6.85;;
64986;SDS011;51532;52.108;9.360;2022-10-23T03:11:53;12.45;;;6.82;;
64986;SDS011;51532;52.108;9.360;2022-10-23T03:14:42;13.40;;;7.35;;
64986;SDS011;51532;52.108;9.360;2022-10-23T03:17:30;9.98;;;7.07;;
64986;SDS011;51532;52.108;9.360;2022-10-23T03:20:19;14.73;;;6.97;;
64986;SDS011;51532;52.108;9.360;2022-10-23T03:23:07;10.40;;;7.07;;
64986;SDS011;51532;52.108;9.360;2022-10-23T03:25:57;10.25;;;7.05;;
64986;SDS011;51532;52.108;9.360;2022-10-23T03:28:55;10.95;;;6.85;;
64986;SDS011;51532;52.108;9.360;2022-10-23T03:31:43;8.13;;;6.57;;
64986;SDS011;51532;52.108;9.360;2022-10-23T03:34:30;8.98;;;6.78;;
64986;SDS011;51532;52.108;9.360;2022-10-23T03:37:18;8.23;;;6.57;;
64986;SDS011;51532;52.108;9.360;2022-10-23T03:40:05;10.23;;;6.20;;
64986;SDS011;51532;52.108;9.360;2022-10-23T03:42:53;7.70;;;6.38;;
64986;SDS011;51532;52.108;9.360;2022-10-23T03:45:41;7.88;;;6.75;;
64986;SDS011;51532;52.108;9.360;2022-10-23T03:48:29;8.85;;;6.85;;
64986;SDS011;51532;52.108;9.360;2022-10-23T03:51:17;10.23;;;6.53;;
64986;SDS011;51532;52.108;9.360;2022-10-23T03:54:05;10.10;;;5.78;;
64986;SDS011;51532;52.108;9.360;2022-10-23T03:56:52;7.13;;;6.20;;
64986;SDS011;51532;52.108;9.360;2022-10-23T03:59:44;9.80;;;6.72;;
64986;SDS011;51532;52.108;9.360;2022-10-23T04:02:32;10.15;;;7.40;;
64986;SDS011;51532;52.108;9.360;2022-10-23T04:05:19;8.45;;;7.07;;
64986;SDS011;51532;52.108;9.360;2022-10-23T04:08:13;12.50;;;6.18;;
64986;SDS011;51532;52.108;9.360;2022-10-23T04:11:08;11.48;;;6.63;;
64986;SDS011;51532;52.108;9.360;2022-10-23T04:14:03;8.98;;;6.60;;
64986;SDS011;51532;52.108;9.360;2022-10-23T04:16:51;6.35;;;5.60;;
64986;SDS011;51532;52.108;9.360;2022-10-23T04:19:39;8.18;;;6.30;;
64986;SDS011;51532;52.108;9.360;2022-10-23T04:22:27;8.27;;;5.80;;
64986;SDS011;51532;52.108;9.360;2022-10-23T04:25:15;9.50;;;5.93;;
64986;SDS011;51532;52.108;9.360;2022-10-23T04:28:03;9.77;;;6.20;;
64986;SDS011;51532;52.108;9.360;2022-10-23T04:30:55;10.30;;;6.40;;
64986;SDS011;51532;52.108;9.360;2022-10-23T04:33:43;9.40;;;6.18;;
64986;SDS011;51532;52.108;9.360;2022-10-23T04:36:44;11.65;;;6.50;;
64986;SDS011;51532;52.108;9.360;2022-10-23T04:39:32;8.13;;;6.28;;
64986;SDS011;51532;52.108;9.360;2022-10-23T04:42:19;10.05;;;6.65;;
64986;SDS011;51532;52.108;9.360;2022-10-23T04:45:07;11.75;;;6.88;;
64986;SDS011;51532;52.108;9.360;2022-10-23T04:47:56;10.18;;;6.75;;
64986;SDS011;51532;52.108;9.360;2022-10-23T04:50:52;10.43;;;6.57;;
64986;SDS011;51532;52.108;9.360;2022-10-23T04:53:57;8.98;;;6.72;;
64986;SDS011;51532;52.108;9.360;2022-10-23T04:56:56;12.75;;;6.55;;
64986;SDS011;51532;52.108;9.360;2022-10-23T04:59:45;9.95;;;6.78;;
64986;SDS011;51532;52.108;9.360;2022-10-23T05:02:33;9.48;;;6.30;;
64986;SDS011;51532;52.108;9.360;2022-10-23T05:05:20;9.38;;;7.03;;
64986;SDS011;51532;52.108;9.360;2022-10-23T05:08:18;11.32;;;7.28;;
64986;SDS011;51532;52.108;9.360;2022-10-23T05:11:26;7.97;;;6.50;;
64986;SDS011;51532;52.108;9.360;2022-10-23T05:14:14;11.52;;;6.93;;
64986;SDS011;51532;52.108;9.360;2022-10-23T05:17:10;8.68;;;6.85;;
64986;SDS011;51532;52.108;9.360;2022-10-23T05:20:03;7.72;;;6.43;;
64986;SDS011;51532;52.108;9.360;2022-10-23T05:22:53;11.25;;;6.95;;
64986;SDS011;51532;52.108;9.360;2022-10-23T05:25:43;8.95;;;6.90;;
64986;SDS011;51532;52.108;9.360;2022-10-23T05:28:36;12.77;;;6.82;;
64986;SDS011;51532;52.108;9.360;2022-10-23T05:31:24;13.57;;;6.72;;
64986;SDS011;51532;52.108;9.360;2022-10-23T05:34:15;9.27;;;6.80;;
64986;SDS011;51532;52.108;9.360;2022-10-23T05:37:06;10.38;;;7.20;;
64986;SDS011;51532;52.108;9.360;2022-10-23T05:39:58;10.27;;;6.55;;
64986;SDS011;51532;52.108;9.360;2022-10-23T05:42:45;13.18;;;7.00;;
64986;SDS011;51532;52.108;9.360;2022-10-23T05:45:37;14.25;;;7.05;;
64986;SDS011;51532;52.108;9.360;2022-10-23T05:48:39;9.18;;;6.50;;
64986;SDS011;51532;52.108;9.360;2022-10-23T05:51:45;9.20;;;7.65;;
64986;SDS011;51532;52.108;9.360;2022-10-23T05:54:53;12.75;;;6.82;;
64986;SDS011;51532;52.108;9.360;2022-10-23T05:58:01;9.63;;;6.78;;
64986;SDS011;51532;52.108;9.360;2022-10-23T06:01:09;9.18;;;6.78;;
64986;SDS011;51532;52.108;9.360;2022-10-23T06:04:16;8.95;;;6.97;;
64986;SDS011;51532;52.108;9.360;2022-10-23T06:07:33;10.00;;;6.72;;
64986;SDS011;51532;52.108;9.360;2022-10-23T06:10:24;9.65;;;6.80;;
64986;SDS011;51532;52.108;9.360;2022-10-23T06:13:14;10.18;;;7.07;;
64986;SDS011;51532;52.108;9.360;2022-10-23T06:16:21;9.85;;;6.85;;
64986;SDS011;51532;52.108;9.360;2022-10-23T06:19:13;7.13;;;6.43;;
64986;SDS011;51532;52.108;9.360;2022-10-23T06:22:03;13.90;;;7.15;;
64986;SDS011;51532;52.108;9.360;2022-10-23T06:25:04;8.18;;;6.85;;
64986;SDS011;51532;52.108;9.360;2022-10-23T06:27:52;8.25;;;6.82;;
64986;SDS011;51532;52.108;9.360;2022-10-23T06:30:39;11.65;;;6.78;;
64986;SDS011;51532;52.108;9.360;2022-10-23T06:33:26;9.27;;;6.90;;
64986;SDS011;51532;52.108;9.360;2022-10-23T06:36:14;11.90;;;7.18;;
64986;SDS011;51532;52.108;9.360;2022-10-23T06:39:02;9.60;;;7.07;;
64986;SDS011;51532;52.108;9.360;2022-10-23T06:42:08;10.88;;;6.95;;
64986;SDS011;51532;52.108;9.360;2022-10-23T06:45:14;10.65;;;7.15;;
64986;SDS011;51532;52.108;9.360;2022-10-23T06:48:37;7.50;;;6.50;;
64986;SDS011;51532;52.108;9.360;2022-10-23T06:51:29;7.90;;;6.47;;
64986;SDS011;51532;52.108;9.360;2022-10-23T06:54:17;10.25;;;7.20;;
64986;SDS011;51532;52.108;9.360;2022-10-23T06:57:07;9.60;;;6.45;;
64986;SDS011;51532;52.108;9.360;2022-10-23T07:00:02;9.43;;;6.78;;
64986;SDS011;51532;52.108;9.360;2022-10-23T07:03:00;6.72;;;6.03;;
64986;SDS011;51532;52.108;9.360;2022-10-23T07:05:48;8.55;;;6.20;;
64986;SDS011;51532;52.108;9.360;2022-10-23T07:08:37;9.13;;;6.15;;
64986;SDS011;51532;52.108;9.360;2022-10-23T07:11:48;10.90;;;6.13;;
64986;SDS011;51532;52.108;9.360;2022-10-23T07:14:37;9.30;;;6.43;;
64986;SDS011;51532;52.108;9.360;2022-10-23T07:17:25;9.77;;;6.57;;
64986;SDS011;51532;52.108;9.360;2022-10-23T07:20:12;8.02;;;5.78;;
64986;SDS011;51532;52.108;9.360;2022-10-23T07:23:01;7.35;;;5.78;;
64986;SDS011;51532;52.108;9.360;2022-10-23T07:25:54;10.77;;;6.55;;
64986;SDS011;51532;52.108;9.360;2022-10-23T07:28:43;7.60;;;5.90;;
64986;SDS011;51532;52.108;9.360;2022-10-23T07:31:34;6.93;;;6.00;;
64986;SDS011;51532;52.108;9.360;2022-10-23T07:34:48;6.38;;;5.78;;
64986;SDS011;51532;52.108;9.360;2022-10-23T07:37:44;8.00;;;5.38;;
64986;SDS011;51532;52.108;9.360;2022-10-23T07:40:32;9.00;;;6.10;;
64986;SDS011;51532;52.108;9.360;2022-10-23T07:43:21;7.55;;;5.28;;
64986;SDS011;51532;52.108;9.360;2022-10-23T07:46:09;7.95;;;5.25;;
64986;SDS011;51532;52.108;9.360;2022-10-23T07:48:58;7.18;;;5.00;;
64986;SDS011;51532;52.108;9.360;2022-10-23T07:51:45;6.63;;;5.78;;
64986;SDS011;51532;52.108;9.360;2022-10-23T07:54:38;7.78;;;5.30;;
64986;SDS011;51532;52.108;9.360;2022-10-23T07:57:38;7.93;;;5.15;;
64986;SDS011;51532;52.108;9.360;2022-10-23T08:00:39;6.85;;;5.50;;
64986;SDS011;51532;52.108;9.360;2022-10-23T08:03:38;6.40;;;5.45;;
64986;SDS011;51532;52.108;9.360;2022-10-23T08:06:26;7.43;;;5.20;;
64986;SDS011;51532;52.108;9.360;2022-10-23T08:09:13;7.93;;;6.10;;
64986;SDS011;51532;52.108;9.360;2022-10-23T08:12:02;6.13;;;5.50;;
64986;SDS011;51532;52.108;9.360;2022-10-23T08:14:50;6.80;;;5.75;;
64986;SDS011;51532;52.108;9.360;2022-10-23T08:17:37;6.70;;;5.63;;
64986;SDS011;51532;52.108;9.360;2022-10-23T08:20:40;9.18;;;5.68;;
64986;SDS011;51532;52.108;9.360;2022-10-23T08:23:28;8.90;;;5.45;;
64986;SDS011;51532;52.108;9.360;2022-10-23T08:26:16;7.18;;;6.38;;
64986;SDS011;51532;52.108;9.360;2022-10-23T08:29:03;6.28;;;5.68;;
64986;SDS011;51532;52.108;9.360;2022-10-23T08:31:54;6.68;;;5.25;;
64986;SDS011;51532;52.108;9.360;2022-10-23T08:34:46;5.88;;;5.28;;
64986;SDS011;51532;52.108;9.360;2022-10-23T08:37:34;8.82;;;5.15;;
64986;SDS011;51532;52.108;9.360;2022-10-23T08:40:22;7.38;;;5.35;;
64986;SDS011;51532;52.108;9.360;2022-10-23T08:43:38;7.28;;;4.90;;
64986;SDS011;51532;52.108;9.360;2022-10-23T08:46:41;6.80;;;4.85;;
64986;SDS011;51532;52.108;9.360;2022-10-23T08:49:58;6.72;;;5.25;;
64986;SDS011;51532;52.108;9.360;2022-10-23T08:52:49;9.32;;;5.38;;
64986;SDS011;51532;52.108;9.360;2022-10-23T08:55:50;5.95;;;5.35;;
64986;SDS011;51532;52.108;9.360;2022-10-23T09:04:56;7.90;;;4.70;;
64986;SDS011;51532;52.108;9.360;2022-10-23T09:07:57;5.32;;;4.57;;
64986;SDS011;51532;52.108;9.360;2022-10-23T09:20:18;6.97;;;4.00;;
64986;SDS011;51532;52.108;9.360;2022-10-23T09:23:26;8.02;;;3.80;;
64986;SDS011;51532;52.108;9.360;2022-10-23T09:26:14;5.15;;;3.92;;
64986;SDS011;51532;52.108;9.360;2022-10-23T09:29:16;7.03;;;3.88;;
64986;SDS011;51532;52.108;9.360;2022-10-23T09:32:08;5.82;;;4.00;;
64986;SDS011;51532;52.108;9.360;2022-10-23T09:34:55;5.32;;;3.88;;
64986;SDS011;51532;52.108;9.360;2022-10-23T09:37:44;4.30;;;3.50;;
64986;SDS011;51532;52.108;9.360;2022-10-23T09:40:40;4.72;;;3.72;;
64986;SDS011;51532;52.108;9.360;2022-10-23T09:43:29;11.32;;;6.57;;
64986;SDS011;51532;52.108;9.360;2022-10-23T09:46:21;6.55;;;5.03;;
64986;SDS011;51532;52.108;9.360;2022-10-23T09:49:16;9.55;;;7.85;;
64986;SDS011;51532;52.108;9.360;2022-10-23T09:54:58;9.00;;;5.28;;
64986;SDS011;51532;52.108;9.360;2022-10-23T09:57:46;7.95;;;4.35;;
64986;SDS011;51532;52.108;9.360;2022-10-23T10:00:44;11.43;;;7.28;;
64986;SDS011;51532;52.108;9.360;2022-10-23T10:03:33;5.45;;;4.32;;
64986;SDS011;51532;52.108;9.360;2022-10-23T10:06:29;8.52;;;6.63;;
64986;SDS011;51532;52.108;9.360;2022-10-23T10:09:18;6.70;;;4.55;;
64986;SDS011;51532;52.108;9.360;2022-10-23T10:15:03;6.95;;;4.30;;
64986;SDS011;51532;52.108;9.360;2022-10-23T10:20:45;3.97;;;3.58;;
64986;SDS011;51532;52.108;9.360;2022-10-23T10:23:46;6.47;;;2.90;;
64986;SDS011;51532;52.108;9.360;2022-10-23T10:52:56;3.25;;;1.80;;
64986;SDS011;51532;52.108;9.360;2022-10-23T10:56:00;3.67;;;2.28;;
64986;SDS011;51532;52.108;9.360;2022-10-23T10:58:51;3.55;;;2.35;;
64986;SDS011;51532;52.108;9.360;2022-10-23T11:01:48;15.82;;;13.30;;
64986;SDS011;51532;52.108;9.360;2022-10-23T11:04:46;4.45;;;2.13;;
64986;SDS011;51532;52.108;9.360;2022-10-23T11:07:51;2.30;;;1.75;;
64986;SDS011;51532;52.108;9.360;2022-10-23T11:10:45;2.78;;;2.00;;
64986;SDS011;51532;52.108;9.360;2022-10-23T11:13:37;6.10;;;2.13;;
64986;SDS011;51532;52.108;9.360;2022-10-23T11:16:30;2.88;;;1.83;;
64986;SDS011;51532;52.108;9.360;2022-10-23T11:25:09;4.07;;;1.50;;
64986;SDS011;51532;52.108;9.360;2022-10-23T11:28:16;2.13;;;1.42;;
64986;SDS011;51532;52.108;9.360;2022-10-23T11:34:34;6.20;;;1.85;;
64986;SDS011;51532;52.108;9.360;2022-10-23T11:37:37;3.92;;;1.80;;
64986;SDS011;51532;52.108;9.360;2022-10-23T11:40:24;5.43;;;1.70;;
64986;SDS011;51532;52.108;9.360;2022-10-23T11:43:12;4.88;;;1.95;;
64986;SDS011;51532;52.108;9.360;2022-10-23T11:46:13;1.92;;;1.67;;
64986;SDS011;51532;52.108;9.360;2022-10-23T11:49:19;3.47;;;2.00;;
64986;SDS011;51532;52.108;9.360;2022-10-23T11:52:19;2.40;;;2.08;;
64986;SDS011;51532;52.108;9.360;2022-10-23T11:55:16;4.57;;;1.95;;
64986;SDS011;51532;52.108;9.360;2022-10-23T12:01:01;2.50;;;1.67;;
64986;SDS011;51532;52.108;9.360;2022-10-23T12:06:49;3.38;;;1.65;;
64986;SDS011;51532;52.108;9.360;2022-10-23T12:09:40;2.47;;;1.77;;
64986;SDS011;51532;52.108;9.360;2022-10-23T12:12:37;4.00;;;1.80;;
64986;SDS011;51532;52.108;9.360;2022-10-23T12:15:26;3.15;;;1.65;;
64986;SDS011;51532;52.108;9.360;2022-10-23T12:18:15;2.65;;;1.60;;
64986;SDS011;51532;52.108;9.360;2022-10-23T12:21:03;5.35;;;1.98;;
64986;SDS011;51532;52.108;9.360;2022-10-23T12:23:54;3.47;;;1.63;;
64986;SDS011;51532;52.108;9.360;2022-10-23T12:32:52;3.05;;;1.67;;
64986;SDS011;51532;52.108;9.360;2022-10-23T12:38:41;4.25;;;2.15;;
64986;SDS011;51532;52.108;9.360;2022-10-23T12:41:33;4.18;;;2.38;;
64986;SDS011;51532;52.108;9.360;2022-10-23T12:44:23;5.85;;;2.85;;
64986;SDS011;51532;52.108;9.360;2022-10-23T12:47:15;3.92;;;2.95;;
64986;SDS011;51532;52.108;9.360;2022-10-23T12:50:15;10.15;;;5.50;;
64986;SDS011;51532;52.108;9.360;2022-10-23T12:53:14;13.82;;;10.95;;
64986;SDS011;51532;52.108;9.360;2022-10-23T12:56:04;4.68;;;3.03;;
64986;SDS011;51532;52.108;9.360;2022-10-23T12:58:54;6.03;;;4.43;;
64986;SDS011;51532;52.108;9.360;2022-10-23T13:01:46;18.50;;;14.00;;
64986;SDS011;51532;52.108;9.360;2022-10-23T13:04:38;4.13;;;2.55;;
64986;SDS011;51532;52.108;9.360;2022-10-23T13:07:28;2.78;;;2.10;;
64986;SDS011;51532;52.108;9.360;2022-10-23T13:10:20;5.90;;;2.95;;
64986;SDS011;51532;52.108;9.360;2022-10-23T13:13:16;4.18;;;2.33;;
64986;SDS011;51532;52.108;9.360;2022-10-23T13:16:21;3.35;;;2.30;;
64986;SDS011;51532;52.108;9.360;2022-10-23T13:19:22;7.05;;;4.97;;
64986;SDS011;51532;52.108;9.360;2022-10-23T13:22:16;3.60;;;2.45;;
64986;SDS011;51532;52.108;9.360;2022-10-23T13:25:25;9.88;;;6.97;;
64986;SDS011;51532;52.108;9.360;2022-10-23T13:37:00;3.42;;;2.20;;
64986;SDS011;51532;52.108;9.360;2022-10-23T13:40:02;4.47;;;2.60;;
64986;SDS011;51532;52.108;9.360;2022-10-23T13:42:50;4.10;;;2.50;;
64986;SDS011;51532;52.108;9.360;2022-10-23T13:45:40;5.35;;;2.50;;
64986;SDS011;51532;52.108;9.360;2022-10-23T13:48:28;8.65;;;5.32;;
64986;SDS011;51532;52.108;9.360;2022-10-23T13:54:18;5.72;;;2.40;;
64986;SDS011;51532;52.108;9.360;2022-10-23T13:57:10;10.20;;;4.25;;
64986;SDS011;51532;52.108;9.360;2022-10-23T13:59:59;7.68;;;3.78;;
64986;SDS011;51532;52.108;9.360;2022-10-23T14:02:57;6.95;;;3.97;;
64986;SDS011;51532;52.108;9.360;2022-10-23T14:05:44;7.97;;;3.55;;
64986;SDS011;51532;52.108;9.360;2022-10-23T14:08:32;4.00;;;2.47;;
64986;SDS011;51532;52.108;9.360;2022-10-23T14:11:19;5.07;;;2.25;;
64986;SDS011;51532;52.108;9.360;2022-10-23T14:14:07;8.20;;;4.45;;
64986;SDS011;51532;52.108;9.360;2022-10-23T14:16:54;4.47;;;2.22;;
64986;SDS011;51532;52.108;9.360;2022-10-23T14:19:41;8.60;;;6.28;;
64986;SDS011;51532;52.108;9.360;2022-10-23T14:22:29;11.10;;;5.72;;
64986;SDS011;51532;52.108;9.360;2022-10-23T14:25:16;4.88;;;2.42;;
64986;SDS011;51532;52.108;9.360;2022-10-23T14:28:04;8.35;;;5.05;;
64986;SDS011;51532;52.108;9.360;2022-10-23T14:30:52;6.32;;;2.58;;
64986;SDS011;51532;52.108;9.360;2022-10-23T14:33:39;3.22;;;2.30;;
64986;SDS011;51532;52.108;9.360;2022-10-23T14:36:27;4.72;;;2.70;;
64986;SDS011;51532;52.108;9.360;2022-10-23T14:39:35;8.07;;;5.57;;
64986;SDS011;51532;52.108;9.360;2022-10-23T14:42:22;7.85;;;5.20;;
64986;SDS011;51532;52.108;9.360;2022-10-23T14:45:10;8.07;;;4.60;;
64986;SDS011;51532;52.108;9.360;2022-10-23T14:47:57;6.05;;;3.60;;
64986;SDS011;51532;52.108;9.360;2022-10-23T14:50:47;4.65;;;3.10;;
64986;SDS011;51532;52.108;9.360;2022-10-23T14:53:34;9.10;;;5.53;;
64986;SDS011;51532;52.108;9.360;2022-10-23T14:56:22;8.93;;;4.25;;
64986;SDS011;51532;52.108;9.360;2022-10-23T14:59:09;5.28;;;2.97;;
64986;SDS011;51532;52.108;9.360;2022-10-23T15:01:58;3.45;;;2.65;;
64986;SDS011;51532;52.108;9.360;2022-10-23T15:04:46;6.65;;;2.28;;
64986;SDS011;51532;52.108;9.360;2022-10-23T15:07:34;2.83;;;2.42;;
64986;SDS011;51532;52.108;9.360;2022-10-23T15:10:20;2.40;;;2.20;;
64986;SDS011;51532;52.108;9.360;2022-10-23T15:13:06;3.95;;;2.08;;
64986;SDS011;51532;52.108;9.360;2022-10-23T15:16:04;4.03;;;2.20;;
64986;SDS011;51532;52.108;9.360;2022-10-23T15:18:52;3.60;;;2.72;;
64986;SDS011;51532;52.108;9.360;2022-10-23T15:21:38;5.88;;;3.80;;
64986;SDS011;51532;52.108;9.360;2022-10-23T15:24:24;8.13;;;3.70;;
64986;SDS011;51532;52.108;9.360;2022-10-23T15:27:10;5.82;;;3.65;;
64986;SDS011;51532;52.108;9.360;2022-10-23T15:29:56;5.70;;;3.25;;
64986;SDS011;51532;52.108;9.360;2022-10-23T15:32:42;4.68;;;2.60;;
64986;SDS011;51532;52.108;9.360;2022-10-23T15:35:28;4.60;;;2.20;;
64986;SDS011;51532;52.108;9.360;2022-10-23T15:38:14;3.67;;;1.80;;
64986;SDS011;51532;52.108;9.360;2022-10-23T15:40:59;3.08;;;2.20;;
64986;SDS011;51532;52.108;9.360;2022-10-23T15:43:58;5.40;;;2.53;;
64986;SDS011;51532;52.108;9.360;2022-10-23T15:46:44;4.60;;;2.67;;
64986;SDS011;51532;52.108;9.360;2022-10-23T15:49:30;8.57;;;4.60;;
64986;SDS011;51532;52.108;9.360;2022-10-23T15:52:16;8.38;;;5.57;;
64986;SDS011;51532;52.108;9.360;2022-10-23T15:55:02;4.88;;;3.92;;
64986;SDS011;51532;52.108;9.360;2022-10-23T15:57:48;8.18;;;3.63;;
64986;SDS011;51532;52.108;9.360;2022-10-23T16:00:34;8.40;;;3.58;;
64986;SDS011;51532;52.108;9.360;2022-10-23T16:03:21;4.97;;;3.80;;
64986;SDS011;51532;52.108;9.360;2022-10-23T16:06:08;3.92;;;2.97;;
64986;SDS011;51532;52.108;9.360;2022-10-23T16:08:56;3.90;;;3.20;;
64986;SDS011;51532;52.108;9.360;2022-10-23T16:11:42;9.82;;;2.83;;
64986;SDS011;51532;52.108;9.360;2022-10-23T16:14:28;5.43;;;2.58;;
64986;SDS011;51532;52.108;9.360;2022-10-23T16:17:14;4.78;;;2.97;;
64986;SDS011;51532;52.108;9.360;2022-10-23T16:20:04;5.78;;;2.97;;
64986;SDS011;51532;52.108;9.360;2022-10-23T16:22:51;5.45;;;3.42;;
64986;SDS011;51532;52.108;9.360;2022-10-23T16:25:37;8.05;;;3.40;;
64986;SDS011;51532;52.108;9.360;2022-10-23T16:28:23;6.38;;;3.60;;
64986;SDS011;51532;52.108;9.360;2022-10-23T16:31:15;4.45;;;3.30;;
64986;SDS011;51532;52.108;9.360;2022-10-23T16:34:04;4.80;;;4.30;;
64986;SDS011;51532;52.108;9.360;2022-10-23T16:36:51;5.00;;;4.35;;
64986;SDS011;51532;52.108;9.360;2022-10-23T16:39:58;6.15;;;3.97;;
64986;SDS011;51532;52.108;9.360;2022-10-23T16:42:45;5.45;;;3.92;;
64986;SDS011;51532;52.108;9.360;2022-10-23T16:46:03;21.75;;;16.30;;
64986;SDS011;51532;52.108;9.360;2022-10-23T16:48:50;17.42;;;10.93;;
64986;SDS011;51532;52.108;9.360;2022-10-23T16:51:36;14.38;;;8.05;;
64986;SDS011;51532;52.108;9.360;2022-10-23T16:54:22;17.05;;;13.10;;
64986;SDS011;51532;52.108;9.360;2022-10-23T16:57:08;6.53;;;5.10;;
64986;SDS011;51532;52.108;9.360;2022-10-23T16:59:54;8.05;;;5.80;;
64986;SDS011;51532;52.108;9.360;2022-10-23T17:02:40;5.93;;;4.78;;
64986;SDS011;51532;52.108;9.360;2022-10-23T17:05:26;7.70;;;5.60;;
64986;SDS011;51532;52.108;9.360;2022-10-23T17:08:11;6.20;;;5.18;;
64986;SDS011;51532;52.108;9.360;2022-10-23T17:11:08;8.88;;;5.07;;
64986;SDS011;51532;52.108;9.360;2022-10-23T17:16:51;7.38;;;4.78;;
64986;SDS011;51532;52.108;9.360;2022-10-23T17:19:37;5.15;;;4.38;;
64986;SDS011;51532;52.108;9.360;2022-10-23T17:22:29;6.20;;;4.32;;
64986;SDS011;51532;52.108;9.360;2022-10-23T17:25:15;4.10;;;3.17;;
64986;SDS011;51532;52.108;9.360;2022-10-23T17:28:01;4.40;;;3.25;;
64986;SDS011;51532;52.108;9.360;2022-10-23T17:30:47;3.78;;;2.78;;
64986;SDS011;51532;52.108;9.360;2022-10-23T17:33:33;5.25;;;2.47;;
64986;SDS011;51532;52.108;9.360;2022-10-23T17:36:20;2.92;;;2.65;;
64986;SDS011;51532;52.108;9.360;2022-10-23T17:39:06;3.47;;;2.58;;
64986;SDS011;51532;52.108;9.360;2022-10-23T17:41:52;3.00;;;2.58;;
64986;SDS011;51532;52.108;9.360;2022-10-23T17:44:38;5.13;;;2.78;;
64986;SDS011;51532;52.108;9.360;2022-10-23T17:47:24;4.78;;;2.80;;
64986;SDS011;51532;52.108;9.360;2022-10-23T17:50:10;6.35;;;3.20;;
64986;SDS011;51532;52.108;9.360;2022-10-23T17:52:56;6.63;;;3.25;;
64986;SDS011;51532;52.108;9.360;2022-10-23T17:55:42;6.07;;;3.45;;
64986;SDS011;51532;52.108;9.360;2022-10-23T17:58:28;4.03;;;3.30;;
64986;SDS011;51532;52.108;9.360;2022-10-23T18:01:15;4.53;;;4.03;;
64986;SDS011;51532;52.108;9.360;2022-10-23T18:04:03;4.97;;;4.47;;
64986;SDS011;51532;52.108;9.360;2022-10-23T18:06:50;11.05;;;6.57;;
64986;SDS011;51532;52.108;9.360;2022-10-23T18:09:37;9.65;;;5.00;;
64986;SDS011;51532;52.108;9.360;2022-10-23T18:12:23;5.50;;;4.60;;
64986;SDS011;51532;52.108;9.360;2022-10-23T18:15:09;10.57;;;5.00;;
64986;SDS011;51532;52.108;9.360;2022-10-23T18:17:54;6.70;;;5.18;;
64986;SDS011;51532;52.108;9.360;2022-10-23T18:20:40;6.13;;;4.88;;
64986;SDS011;51532;52.108;9.360;2022-10-23T18:23:27;7.35;;;5.15;;
64986;SDS011;51532;52.108;9.360;2022-10-23T18:26:15;7.32;;;5.70;;
64986;SDS011;51532;52.108;9.360;2022-10-23T18:29:03;10.43;;;6.05;;
64986;SDS011;51532;52.108;9.360;2022-10-23T18:31:51;9.35;;;5.43;;
64986;SDS011;51532;52.108;9.360;2022-10-23T18:34:37;32.37;;;26.97;;
64986;SDS011;51532;52.108;9.360;2022-10-23T18:37:23;40.30;;;32.55;;
64986;SDS011;51532;52.108;9.360;2022-10-23T18:40:16;43.85;;;35.53;;
64986;SDS011;51532;52.108;9.360;2022-10-23T18:43:02;8.90;;;7.78;;
64986;SDS011;51532;52.108;9.360;2022-10-23T18:45:58;6.15;;;4.88;;
64986;SDS011;51532;52.108;9.360;2022-10-23T18:48:44;6.13;;;4.38;;
64986;SDS011;51532;52.108;9.360;2022-10-23T18:51:32;4.72;;;3.42;;
64986;SDS011;51532;52.108;9.360;2022-10-23T18:54:19;7.80;;;3.30;;
64986;SDS011;51532;52.108;9.360;2022-10-23T18:57:05;3.42;;;2.78;;
64986;SDS011;51532;52.108;9.360;2022-10-23T18:59:54;5.03;;;2.92;;
64986;SDS011;51532;52.108;9.360;2022-10-23T19:02:39;4.82;;;2.80;;
64986;SDS011;51532;52.108;9.360;2022-10-23T19:05:25;3.28;;;2.92;;
64986;SDS011;51532;52.108;9.360;2022-10-23T19:08:11;5.28;;;2.97;;
64986;SDS011;51532;52.108;9.360;2022-10-23T19:10:57;4.78;;;2.90;;
64986;SDS011;51532;52.108;9.360;2022-10-23T19:13:44;3.55;;;2.90;;
64986;SDS011;51532;52.108;9.360;2022-10-23T19:16:32;4.43;;;3.08;;